LPAZMDLR

Guest
Details From LPAZ - Santa Maria
To MDLR - La Romana Casa De Campo Intl
Flight Number -
Tags Generated
Created
Modified
Stats Distance 2,550 nm / 4,722 km
Max Altitude 0 ft / 0 m
Waypoints 3
Social Downloads 1
Likes 0
Share VATSIM

Download

Looking for another format? Having issues loading an existing format? Contact us
Advertisement - Login to hide

Notes

Generated

Route

LPAZ GOSUL MDLR

ID Type Via Altitude Latitude Longitude Leg Dist Tot Dist Heading (true) Name
O LPAZ APT - 0 ft / 0 m 36.97389˚ -25.17583˚ - 0 nm - -
GOSUL FIX - 0 ft / 0 m 18.52287˚ -68.79536˚ 2541 nm 2541 nm 256° / 235° -
O MDLR APT - 0 ft / 0 m 18.45234˚ -68.92569˚ 8 nm 2549 nm 240° / 240° -

Altitude Profile

Advertisement - Login to hide

Weather


0- 5 10 15 20 25 30 35+ Temperature / ° C

Clouds and Precipitation
Forecast for 2017-12-18 00:00 UTC. Updated 40 minutes ago

Ground ~20,000 ft ~40,000 ft Winds

LPAZ

Details ICAO LPAZ (SMA)
Name SANTA MARIA
Region Portugal
Timezone Atlantic/Azores (UTC-1.0)
Stats Elevation 308 ft / 94 m (AMSL)
Location 36.972732° -25.170532°
Runways 3
Magnetic Variation 8.134° W

METAR

LPAZ 172000Z 12005KT 9999 FEW016 BKN036 17/15 Q1029

Decode

TAF

TAF LPAZ 171700Z 1718/1824 13008KT 9999 SCT013 BKN035 TEMPO 1718/1803 SCT018 TEMPO 1803/1812 BKN015 BECMG 1805/1808 16015KT

Decode

Departure Runways

ID Width Length Bearing (true) Bearing (mag) Surface Threshold Offset Overrun Length
04 148 ft / 45 m 4,351 ft / 1,326 m 27.72° 35.85° Asphalt 0 ft / 0 m 210 ft / 64 m
15 148 ft / 45 m 6,061 ft / 1,847 m 135.98° 144.11° Asphalt 0 ft / 0 m 210 ft / 64 m
18 197 ft / 60 m 10,058 ft / 3,066 m 170.97° 179.10° Concrete 0 ft / 0 m 1,000 ft / 305 m
22 148 ft / 45 m 4,351 ft / 1,326 m 207.73° 215.86° Asphalt 0 ft / 0 m 125 ft / 38 m
33 148 ft / 45 m 6,061 ft / 1,847 m 315.99° 324.12° Asphalt 0 ft / 0 m 625 ft / 191 m
36 197 ft / 60 m 10,058 ft / 3,066 m 350.97° 359.10° Concrete 0 ft / 0 m 1,000 ft / 305 m

MDLR

Details ICAO MDLR (LRM)
Name La Romana Casa De Campo Intl
Region Dominican Republic
Timezone America/Santo_Domingo (UTC-4.0)
Stats Elevation 238 ft / 73 m (AMSL)
Location 18.450713° -68.911834°
Runways 1
Magnetic Variation 11.909° W

METAR

MDLR 172000Z 00000KT 9999 SCT020 29/23 Q1017

Decode

TAF

Not found

Destination Runways

ID Width Length Bearing (true) Bearing (mag) Surface Threshold Offset Overrun Length
11 148 ft / 45 m 9,666 ft / 2,946 m 97.07° 108.98° Concrete 0 ft / 0 m 200 ft / 61 m
29 148 ft / 45 m 9,666 ft / 2,946 m 277.08° 288.99° Concrete 0 ft / 0 m 200 ft / 61 m